Dorothy, WV (25060)

5:40 PM EST on February 24, 2017 (GMT -0500)
F.I.T. - Oyler Ave. | | Change Station

Elev 1988 ft 37.99 °N, 81.15 °W | Updated 0 second ago

Clear
Clear
72.1 °F
Feels Like 77 °F
N
0.0
Wind Variable Wind from NNE
Gusts 1.0 mph

Today
High -- | Low -- °F
--% Chance of Precip.
Yesterday
High -- | Low -- °F
Precip. -- in
Pressure 29.68 in
Visibility 10.0 miles
Clouds Clear
Heat Index 77 °F
Dew Point 51 °F
Humidity 48%
Rainfall 0.00 in
Snow Depth Not available.
7:03 AM 6:14 PM
Waning Crescent, 3% visible
METAR KBKW 242151Z AUTO 16008G18KT 10SM CLR 22/08 A2975 RMK AO2 SLP051 T02170078
Pressure 29.68 in
Visibility 10.0 miles
Clouds Clear
Heat Index 77 °F
Dew Point 51 °F
Humidity 48%
Rainfall 0.00 in
Snow Depth Not available.
7:03 AM 6:14 PM
Waning Crescent, 3% visible
METAR KBKW 242151Z AUTO 16008G18KT 10SM CLR 22/08 A2975 RMK AO2 SLP051 T02170078

Get Your Daily Forecast Email!

Thanks for signing up!

Be on the lookout for a verification email in your inbox.

You'll start receiving the daily forecast at 8 AM.

×

10-Day Weather Forecast

Almanac

Astronomy

Feb. 24, 2017 Rise Set
Actual Time
Civil Twilight
Nautical Twilight
Astronomical Twilight
Moon
Length of Visible Light
Length of Day
Tomorrow will be .
, % of the Moon is Illuminated

Today's Extremes

State Highs State Lows

Community

WunderPhotos

Upload Photos

1,962,540 photos uploaded!

WunderBlog® & News

Nearby

Air Quality

  Air Quality AQ Index Pollutant
Not available.

Snow Depth

Station Depth Elevation

Earthquake Activity

City Distance Mag. Time & Date
Minimum magnitude displayed is 2.5.

Coastal Water Temperatures

Place Temperature

Stations

Nearby Weather Stations

Station Location Temp. Windchill Dew Point Humidity Wind Precip. Elev Updated Type
                   

Watches & Warnings

There are currently no watches in effect.